Time;durP1;ratioP1;P1;durP2;ratioP2;P2;SDS_P1;SDS_P2;PMS_P1;PMS_P2;Temp;Humidity;BMP_temperature;BMP_pressure;BME280_temperature;BME280_humidity;BME280_pressure;Samples;Min_cycle;Max_cycle;Signal;HPM_P1;HPM_P2
2022/12/11 00:01:21;;;;;;;116.97;27.10;;;1.70;99.90;;;;;;5020986;28;20240;-82
2022/12/11 00:03:48;;;;;;;116.82;30.45;;;1.70;99.90;;;;;;5020842;28;20166;-82
2022/12/11 00:06:17;;;;;;;114.75;27.95;;;1.70;99.90;;;;;;5020113;28;20194;-82
2022/12/11 00:08:43;;;;;;;112.88;29.20;;;1.60;99.90;;;;;;5020605;28;20565;-82
2022/12/11 00:11:11;;;;;;;124.78;30.45;;;1.70;99.90;;;;;;5019511;28;20693;-82
2022/12/11 00:13:37;;;;;;;115.88;29.25;;;1.70;99.90;;;;;;5020675;28;20177;-82
2022/12/11 00:16:03;;;;;;;119.20;31.17;;;1.70;99.90;;;;;;5019449;28;20170;-82
2022/12/11 00:18:30;;;;;;;126.85;33.35;;;1.70;99.90;;;;;;5018955;28;20181;-82
2022/12/11 00:21:06;;;;;;;110.85;30.10;;;1.70;99.90;;;;;;5021129;28;20203;-82
2022/12/11 00:23:34;;;;;;;109.85;28.75;;;1.60;99.90;;;;;;5020559;28;20649;-82
2022/12/11 00:26:03;;;;;;;118.45;34.53;;;1.60;99.90;;;;;;5020469;28;20170;-82
2022/12/11 00:28:29;;;;;;;115.28;31.95;;;1.60;99.90;;;;;;5020051;28;20193;-82
2022/12/11 00:30:54;;;;;;;114.47;30.70;;;1.60;99.90;;;;;;5020056;28;20205;-82
2022/12/11 00:33:20;;;;;;;127.10;31.13;;;1.60;99.90;;;;;;5020120;28;20193;-82
2022/12/11 00:35:46;;;;;;;124.10;33.17;;;1.60;99.90;;;;;;5019888;28;20260;-82
2022/12/11 00:38:18;;;;;;;118.97;35.13;;;1.70;99.90;;;;;;5020043;28;20165;-82
2022/12/11 00:40:44;;;;;;;122.97;31.52;;;1.80;99.90;;;;;;5020189;28;20209;-82
2022/12/11 00:43:10;;;;;;;127.97;32.58;;;1.80;99.90;;;;;;5019881;28;20166;-82
2022/12/11 00:45:45;;;;;;;113.57;31.38;;;1.90;99.90;;;;;;5019592;28;20573;-82
2022/12/11 00:48:12;;;;;;;114.90;31.70;;;1.90;99.90;;;;;;5020531;28;20168;-82
2022/12/11 00:50:38;;;;;;;118.22;30.30;;;1.90;99.90;;;;;;5019935;28;20188;-82
2022/12/11 00:53:05;;;;;;;116.35;29.88;;;1.90;99.90;;;;;;5018399;28;20165;-82
2022/12/11 00:55:34;;;;;;;118.75;32.20;;;1.80;99.90;;;;;;5019450;28;20642;-81
2022/12/11 00:58:00;;;;;;;115.50;30.95;;;1.80;99.90;;;;;;5019555;28;20182;-82
2022/12/11 01:00:26;;;;;;;128.03;30.63;;;1.90;99.90;;;;;;5019390;28;20177;-82
2022/12/11 01:02:51;;;;;;;118.37;30.83;;;1.80;99.90;;;;;;5019146;28;20193;-81
2022/12/11 01:05:17;;;;;;;125.37;32.80;;;1.80;99.90;;;;;;5018847;28;20559;-82
2022/12/11 01:07:43;;;;;;;114.70;28.37;;;1.70;99.90;;;;;;5019340;28;20224;-82
2022/12/11 01:10:25;;;;;;;117.67;28.43;;;1.80;99.90;;;;;;5018982;28;20261;-82
2022/12/11 01:13:00;;;;;;;103.38;25.55;;;1.80;99.90;;;;;;5018322;28;20193;-82
2022/12/11 01:15:32;;;;;;;106.07;24.67;;;1.80;99.90;;;;;;5019574;28;20157;-81
2022/12/11 01:18:00;;;;;;;111.88;27.40;;;1.80;99.90;;;;;;5018436;28;20169;-82
2022/12/11 01:20:27;;;;;;;110.40;26.42;;;1.90;99.90;;;;;;5019553;28;20221;-82
2022/12/11 01:22:55;;;;;;;114.28;28.02;;;1.80;99.90;;;;;;5019077;28;20194;-82
2022/12/11 01:25:21;;;;;;;118.22;26.63;;;1.80;99.90;;;;;;5019525;28;20177;-82
2022/12/11 01:27:52;;;;;;;110.32;25.92;;;1.80;99.90;;;;;;5019202;28;20172;-82
2022/12/11 01:30:19;;;;;;;104.15;23.88;;;1.80;99.90;;;;;;5018986;28;20190;-82
2022/12/11 01:32:45;;;;;;;108.07;23.13;;;1.80;99.90;;;;;;5019346;28;20695;-82
2022/12/11 01:35:12;;;;;;;111.00;24.77;;;1.80;99.90;;;;;;5017970;28;20166;-82
2022/12/11 01:37:38;;;;;;;113.95;28.95;;;1.80;99.90;;;;;;5019147;28;20433;-82
2022/12/11 01:40:06;;;;;;;107.57;26.90;;;1.70;99.90;;;;;;5017881;28;20212;-82
2022/12/11 01:42:33;;;;;;;115.32;25.00;;;1.70;99.90;;;;;;5019118;28;20197;-82
2022/12/11 01:45:20;;;;;;;115.80;27.70;;;1.60;99.90;;;;;;5018486;28;20162;-82
2022/12/11 01:47:46;;;;;;;106.18;29.08;;;1.60;99.90;;;;;;5018659;28;20241;-82
2022/12/11 01:50:12;;;;;;;123.18;29.40;;;1.60;99.90;;;;;;5018581;28;20185;-82
2022/12/11 01:52:40;;;;;;;109.60;28.67;;;1.60;99.90;;;;;;5019162;28;20177;-82
2022/12/11 01:55:08;;;;;;;114.07;27.83;;;1.70;99.90;;;;;;5018557;28;20166;-82
2022/12/11 01:57:36;;;;;;;112.97;28.60;;;1.70;99.90;;;;;;5017324;28;20652;-82
2022/12/11 02:00:02;;;;;;;111.75;29.48;;;1.80;99.90;;;;;;5019244;28;20681;-82
2022/12/11 02:02:30;;;;;;;118.47;26.58;;;1.70;99.90;;;;;;5016667;28;20260;-82
2022/12/11 02:04:56;;;;;;;112.80;27.05;;;1.80;99.90;;;;;;5018778;28;20196;-82
2022/12/11 02:07:22;;;;;;;121.60;27.00;;;1.80;99.90;;;;;;5018433;28;20159;-82
2022/12/11 02:09:48;;;;;;;114.75;25.00;;;1.90;99.90;;;;;;5018232;28;20522;-82
2022/12/11 02:12:22;;;;;;;126.00;27.63;;;1.80;99.90;;;;;;5018010;28;20193;-82
2022/12/11 02:15:06;;;;;;;114.72;25.65;;;1.80;99.90;;;;;;5018454;28;20169;-82
2022/12/11 02:17:42;;;;;;;115.57;27.02;;;1.80;99.90;;;;;;5018390;28;20653;-82
2022/12/11 02:20:17;;;;;;;111.95;27.90;;;1.70;99.90;;;;;;5018342;28;20185;-82
2022/12/11 02:23:11;;;;;;;121.47;26.85;;;1.70;99.90;;;;;;5018265;28;20185;-82
2022/12/11 02:25:59;;;;;;;110.43;28.02;;;1.70;99.90;;;;;;5018649;28;20487;-82
2022/12/11 02:28:33;;;;;;;104.38;27.25;;;1.70;99.90;;;;;;5017769;28;20162;-82
2022/12/11 02:31:06;;;;;;;114.95;24.85;;;1.60;99.90;;;;;;5017954;28;20189;-82
2022/12/11 02:33:48;;;;;;;118.90;26.65;;;1.70;99.90;;;;;;5021695;28;20642;-82
2022/12/11 02:36:17;;;;;;;115.82;27.90;;;1.70;99.90;;;;;;5019298;28;20154;-83
2022/12/11 02:38:49;;;;;;;112.45;27.75;;;1.70;99.90;;;;;;5019239;28;20180;-82
2022/12/11 02:41:18;;;;;;;114.00;28.90;;;1.80;99.90;;;;;;5019420;28;20201;-82
2022/12/11 02:43:44;;;;;;;118.68;26.73;;;1.70;99.90;;;;;;5020372;28;20190;-82
2022/12/11 02:46:11;;;;;;;117.45;25.80;;;1.80;99.90;;;;;;5020514;28;20170;-82
2022/12/11 02:48:39;;;;;;;112.53;24.45;;;1.80;99.90;;;;;;5020750;28;20185;-81
2022/12/11 02:51:07;;;;;;;110.35;24.77;;;1.80;99.90;;;;;;5019826;28;20217;-82
2022/12/11 02:53:37;;;;;;;107.70;23.05;;;1.90;99.90;;;;;;5020148;28;20177;-82
2022/12/11 02:56:20;;;;;;;114.53;22.52;;;1.90;99.90;;;;;;5019990;28;20162;-82
2022/12/11 02:58:49;;;;;;;106.90;22.40;;;1.90;99.90;;;;;;5019250;28;20209;-81
2022/12/11 03:01:15;;;;;;;110.47;24.48;;;1.90;99.90;;;;;;5019314;28;20198;-81
2022/12/11 03:03:41;;;;;;;107.80;22.65;;;1.90;99.90;;;;;;5019843;28;20169;-81
2022/12/11 03:06:09;;;;;;;108.35;22.83;;;1.80;99.90;;;;;;5018606;28;20195;-81
2022/12/11 03:08:35;;;;;;;110.90;25.38;;;1.80;99.90;;;;;;5019029;28;20170;-81
2022/12/11 03:11:01;;;;;;;114.90;25.33;;;1.70;99.90;;;;;;5018748;28;20201;-81
2022/12/11 03:13:26;;;;;;;110.93;24.47;;;1.80;99.90;;;;;;5018598;28;20162;-81
2022/12/11 03:16:03;;;;;;;105.77;21.13;;;1.90;99.90;;;;;;5019278;28;20671;-81
2022/12/11 03:18:42;;;;;;;111.95;21.73;;;1.90;99.90;;;;;;5018446;28;20174;-81
2022/12/11 03:21:16;;;;;;;112.45;21.65;;;1.90;99.90;;;;;;5017213;28;20205;-81
2022/12/11 03:23:50;;;;;;;107.15;22.75;;;1.90;99.90;;;;;;5018572;28;20160;-82
2022/12/11 03:26:18;;;;;;;111.80;22.50;;;1.90;99.90;;;;;;5018049;28;20156;-81
2022/12/11 03:28:50;;;;;;;100.25;22.15;;;1.90;99.90;;;;;;5017715;28;20161;-81
2022/12/11 03:31:49;;;;;;;112.28;22.48;;;1.80;99.90;;;;;;5022422;28;20756;-81
2022/12/11 03:34:26;;;;;;;115.10;23.20;;;1.80;99.90;;;;;;5017415;28;20192;-82
2022/12/11 03:36:55;;;;;;;112.22;23.42;;;1.80;99.90;;;;;;5021937;28;20564;-82
2022/12/11 03:39:32;;;;;;;98.95;22.10;;;1.80;99.90;;;;;;5020571;28;20169;-82
2022/12/11 03:42:00;;;;;;;105.88;21.30;;;1.80;99.90;;;;;;5021551;28;20205;-81
2022/12/11 03:44:28;;;;;;;109.18;23.65;;;1.80;99.90;;;;;;5021746;28;20191;-81
2022/12/11 03:46:56;;;;;;;100.75;22.80;;;1.80;99.90;;;;;;5021259;28;20162;-81
2022/12/11 03:49:28;;;;;;;101.53;21.95;;;1.80;99.90;;;;;;5020043;28;20166;-80
2022/12/11 03:51:57;;;;;;;102.05;21.40;;;1.80;99.90;;;;;;5021186;28;20213;-81
2022/12/11 03:54:24;;;;;;;107.30;20.30;;;1.90;99.90;;;;;;5021367;28;20174;-81
2022/12/11 03:56:54;;;;;;;101.80;21.95;;;1.90;99.90;;;;;;5020921;28;20155;-81
2022/12/11 03:59:20;;;;;;;109.05;24.48;;;1.80;99.90;;;;;;5019771;28;20154;-83
2022/12/11 04:01:46;;;;;;;104.07;21.90;;;1.70;99.90;;;;;;5020411;28;20194;-81
2022/12/11 04:04:11;;;;;;;101.90;20.60;;;1.80;99.90;;;;;;5020917;28;20796;-80
2022/12/11 04:06:37;;;;;;;107.73;20.50;;;1.80;99.90;;;;;;5021134;28;20190;-81
2022/12/11 04:09:03;;;;;;;101.80;19.60;;;1.80;99.90;;;;;;5020738;28;20197;-81
2022/12/11 04:11:34;;;;;;;107.07;19.67;;;1.80;99.90;;;;;;5019829;28;20205;-81
2022/12/11 04:16:59;;;;;;;100.43;19.48;;;1.70;99.90;;;;;;5011955;28;20654;-81
2022/12/11 04:24:55;;;;;;;104.40;21.38;;;1.70;99.90;;;;;;5020930;28;20160;-81
2022/12/11 04:30:09;;;;;;;99.97;21.98;;;1.70;99.90;;;;;;5020406;28;20552;-81
2022/12/11 04:32:35;;;;;;;101.45;22.90;;;1.70;99.90;;;;;;5019421;28;20170;-81
2022/12/11 04:35:00;;;;;;;101.17;23.30;;;1.70;99.90;;;;;;5019221;28;20166;-83
2022/12/11 04:37:27;;;;;;;101.50;22.87;;;1.80;99.90;;;;;;5020689;28;20166;-80
2022/12/11 04:39:53;;;;;;;102.78;21.77;;;1.70;99.90;;;;;;5019591;28;20162;-81
2022/12/11 04:42:18;;;;;;;102.60;24.87;;;1.80;99.90;;;;;;5019641;28;20200;-81
2022/12/11 04:44:44;;;;;;;96.77;21.17;;;1.70;99.90;;;;;;5019853;28;20519;-82
2022/12/11 04:47:10;;;;;;;104.47;22.77;;;1.70;99.90;;;;;;5019664;28;20158;-82
2022/12/11 04:49:36;;;;;;;99.20;22.60;;;1.60;99.90;;;;;;5019492;28;20189;-82
2022/12/11 04:52:02;;;;;;;95.67;21.30;;;1.50;99.90;;;;;;5020556;28;20425;-82
2022/12/11 04:54:29;;;;;;;93.25;18.48;;;1.50;99.90;;;;;;5018511;28;20429;-82
2022/12/11 04:56:55;;;;;;;99.32;19.88;;;1.60;99.90;;;;;;5019907;28;20174;-82
2022/12/11 04:59:21;;;;;;;98.40;18.90;;;1.70;99.90;;;;;;5018462;28;20185;-82
2022/12/11 05:01:46;;;;;;;96.00;18.50;;;1.60;99.90;;;;;;5019555;28;20213;-82
2022/12/11 05:04:13;;;;;;;92.57;20.70;;;1.60;99.90;;;;;;5018113;28;20165;-82
2022/12/11 05:06:38;;;;;;;102.70;22.17;;;1.60;99.90;;;;;;5019788;28;20162;-82
2022/12/11 05:09:04;;;;;;;97.37;21.70;;;1.50;99.90;;;;;;5019559;28;20447;-82
2022/12/11 05:11:30;;;;;;;97.93;18.50;;;1.50;99.90;;;;;;5072968;23;20520;-75
2022/12/11 05:13:56;;;;;;;94.97;22.03;;;1.60;99.90;;;;;;4995144;28;20622;-76
2022/12/11 05:16:21;;;;;;;94.27;22.13;;;1.50;99.90;;;;;;4994832;28;20178;-77
2022/12/11 05:18:47;;;;;;;94.33;22.00;;;1.40;99.90;;;;;;4995082;28;20213;-77
2022/12/11 05:21:14;;;;;;;89.87;20.83;;;1.50;99.90;;;;;;4994561;28;20202;-76
2022/12/11 05:23:40;;;;;;;99.22;21.10;;;1.40;99.90;;;;;;4994718;28;20214;-76
2022/12/11 05:26:10;;;;;;;94.40;20.75;;;1.50;99.90;;;;;;4994685;28;20166;-76
2022/12/11 05:28:37;;;;;;;88.82;19.98;;;1.50;99.90;;;;;;4994581;28;20228;-76
2022/12/11 05:31:15;;;;;;;104.65;21.15;;;1.50;99.90;;;;;;4994473;28;20191;-76
2022/12/11 05:33:41;;;;;;;95.53;21.75;;;1.60;99.90;;;;;;4994822;28;20167;-76
2022/12/11 05:36:08;;;;;;;99.78;22.55;;;1.60;99.90;;;;;;4993239;28;20183;-76
2022/12/11 05:38:34;;;;;;;94.43;21.58;;;1.60;99.90;;;;;;4994419;28;20167;-76
2022/12/11 05:41:03;;;;;;;96.23;21.53;;;1.50;99.90;;;;;;4994329;28;20555;-77
2022/12/11 05:43:32;;;;;;;95.20;22.80;;;1.50;99.90;;;;;;4994232;28;20178;-76
2022/12/11 05:46:13;;;;;;;103.20;20.45;;;1.60;99.90;;;;;;4993065;28;20174;-76
2022/12/11 05:48:39;;;;;;;106.20;20.20;;;1.60;99.90;;;;;;4994902;28;20507;-76
2022/12/11 05:51:07;;;;;;;97.03;19.95;;;1.70;99.90;;;;;;4992546;28;20189;-76
2022/12/11 05:53:34;;;;;;;88.30;18.00;;;1.60;99.90;;;;;;4994377;28;20642;-76
2022/12/11 05:56:18;;;;;;;97.13;20.27;;;1.60;99.90;;;;;;4994439;28;20162;-76
2022/12/11 05:58:44;;;;;;;95.95;20.05;;;1.50;99.90;;;;;;4994165;28;20155;-77
2022/12/11 06:01:13;;;;;;;96.20;19.80;;;1.60;99.90;;;;;;4993965;28;20209;-76
2022/12/11 06:03:39;;;;;;;102.97;23.52;;;1.60;99.90;;;;;;4994566;28;20665;-76
2022/12/11 06:06:06;;;;;;;96.23;21.10;;;1.50;99.90;;;;;;4994024;28;20178;-76
2022/12/11 06:08:32;;;;;;;97.50;20.52;;;1.50;99.90;;;;;;4992688;28;20786;-76
2022/12/11 06:10:58;;;;;;;96.00;21.85;;;1.50;99.90;;;;;;4993945;28;20238;-76
2022/12/11 06:13:24;;;;;;;96.95;23.52;;;1.50;99.90;;;;;;4994154;28;20646;-76
2022/12/11 06:15:51;;;;;;;96.75;21.08;;;1.50;99.90;;;;;;4994141;28;20174;-76
2022/12/11 06:18:16;;;;;;;96.75;21.25;;;1.60;99.90;;;;;;4994146;28;20202;-76
2022/12/11 06:20:42;;;;;;;98.50;23.70;;;1.60;99.90;;;;;;4993798;28;20686;-76
2022/12/11 06:23:08;;;;;;;97.63;24.27;;;1.50;99.90;;;;;;4993780;28;20190;-77
2022/12/11 06:25:34;;;;;;;96.80;23.20;;;1.60;99.90;;;;;;4993790;28;20240;-76
2022/12/11 06:27:59;;;;;;;97.57;22.67;;;1.60;99.90;;;;;;4993770;28;20174;-76
2022/12/11 06:30:25;;;;;;;101.57;25.60;;;1.60;99.90;;;;;;4993724;28;20825;-77
2022/12/11 06:32:51;;;;;;;96.27;21.97;;;1.70;99.90;;;;;;4992517;28;20196;-76
2022/12/11 06:35:16;;;;;;;97.50;22.93;;;1.60;99.90;;;;;;4993731;28;20518;-76
2022/12/11 06:37:42;;;;;;;98.10;22.07;;;1.60;99.90;;;;;;4993804;28;20245;-76
2022/12/11 06:40:10;;;;;;;98.77;21.37;;;1.50;99.90;;;;;;4992430;28;20228;-76
2022/12/11 06:42:36;;;;;;;93.10;25.23;;;1.50;99.90;;;;;;4993870;28;20189;-76
2022/12/11 06:45:02;;;;;;;97.93;25.20;;;1.50;99.90;;;;;;4993688;28;20178;-77
2022/12/11 06:47:29;;;;;;;93.47;24.13;;;1.50;99.90;;;;;;4994477;28;20627;-77
2022/12/11 06:49:55;;;;;;;100.65;26.15;;;1.60;99.90;;;;;;4993550;28;20634;-76
2022/12/11 06:52:22;;;;;;;98.30;25.20;;;1.60;99.90;;;;;;4992345;28;20228;-77
2022/12/11 06:54:47;;;;;;;99.25;26.60;;;1.50;99.90;;;;;;4993539;28;20189;-76
2022/12/11 06:57:14;;;;;;;99.53;22.23;;;1.60;99.90;;;;;;4992307;28;20261;-76
2022/12/11 06:59:39;;;;;;;97.35;24.70;;;1.60;99.90;;;;;;4993771;28;20171;-76
2022/12/11 07:02:05;;;;;;;95.77;22.93;;;1.70;99.90;;;;;;4993388;28;20197;-76
2022/12/11 07:04:31;;;;;;;98.27;24.63;;;1.60;99.90;;;;;;4995700;28;20534;-76
2022/12/11 07:06:57;;;;;;;105.70;23.50;;;1.60;99.90;;;;;;4996042;28;20413;-76
2022/12/11 07:09:23;;;;;;;95.55;24.67;;;1.60;99.90;;;;;;4997203;28;20220;-77
2022/12/11 07:11:50;;;;;;;106.88;24.95;;;1.60;99.90;;;;;;4997025;28;20569;-76
2022/12/11 07:14:16;;;;;;;97.50;25.50;;;1.60;99.90;;;;;;4997102;28;20170;-77
2022/12/11 07:16:42;;;;;;;93.47;26.60;;;1.60;99.90;;;;;;4997335;28;20541;-76
2022/12/11 07:19:07;;;;;;;99.53;27.67;;;1.50;99.90;;;;;;4997076;28;20218;-77
2022/12/11 07:21:33;;;;;;;95.53;27.40;;;1.50;99.90;;;;;;4997188;28;20745;-76
2022/12/11 07:23:59;;;;;;;100.90;28.10;;;1.50;99.90;;;;;;4996906;28;20202;-76
2022/12/11 07:26:25;;;;;;;102.57;29.07;;;1.50;99.90;;;;;;4996939;28;20193;-76
2022/12/11 07:28:55;;;;;;;94.65;27.50;;;1.50;99.90;;;;;;4996876;28;20298;-76
2022/12/11 07:31:23;;;;;;;98.55;29.33;;;1.50;99.90;;;;;;4997010;28;20182;-76
2022/12/11 07:34:15;;;;;;;96.80;26.75;;;1.60;99.90;;;;;;4997042;28;20171;-76
2022/12/11 07:36:44;;;;;;;106.80;27.52;;;1.50;99.90;;;;;;4996725;28;20179;-76
2022/12/11 07:39:12;;;;;;;99.35;29.42;;;1.50;99.90;;;;;;4996627;28;20174;-76
2022/12/11 07:41:39;;;;;;;104.55;28.77;;;1.40;99.90;;;;;;4996536;28;20605;-77
2022/12/11 07:44:04;;;;;;;97.07;28.30;;;1.50;99.90;;;;;;4996538;28;20175;-76
2022/12/11 07:46:33;;;;;;;103.70;27.47;;;1.50;99.90;;;;;;4979130;28;20166;-76
2022/12/11 07:48:59;;;;;;;104.40;28.88;;;1.50;99.90;;;;;;4996506;28;20167;-76
2022/12/11 07:51:34;;;;;;;92.88;27.67;;;1.50;99.90;;;;;;4996337;28;20183;-76
2022/12/11 07:54:02;;;;;;;103.97;26.30;;;1.40;99.90;;;;;;4995202;28;20658;-76
2022/12/11 07:56:29;;;;;;;103.68;29.25;;;1.50;99.90;;;;;;4996344;28;20198;-76
2022/12/11 07:58:55;;;;;;;97.50;30.90;;;1.60;99.90;;;;;;4996341;28;20290;-76
2022/12/11 08:01:24;;;;;;;105.57;31.92;;;1.50;99.90;;;;;;4996194;28;20278;-76
2022/12/11 08:03:51;;;;;;;102.25;29.80;;;1.50;99.90;;;;;;4996176;28;20216;-77
2022/12/11 08:06:17;;;;;;;99.43;25.70;;;1.40;99.90;;;;;;4996451;28;20216;-76
2022/12/11 08:08:43;;;;;;;109.85;29.30;;;1.40;99.90;;;;;;4996112;28;20530;-76
2022/12/11 08:11:12;;;;;;;102.35;33.85;;;1.40;99.90;;;;;;4996024;28;20202;-77
2022/12/11 08:13:38;;;;;;;105.78;30.65;;;1.40;99.90;;;;;;4996030;28;20166;-76
2022/12/11 08:16:06;;;;;;;102.30;27.20;;;1.40;99.90;;;;;;4995961;28;20570;-77
2022/12/11 08:18:33;;;;;;;100.38;29.48;;;1.40;99.90;;;;;;4995971;28;20638;-76
2022/12/11 08:21:23;;;;;;;98.90;31.10;;;1.40;99.90;;;;;;4995719;28;20261;-76
2022/12/11 08:23:50;;;;;;;107.63;30.42;;;1.60;99.90;;;;;;4995972;28;20697;-76
2022/12/11 08:26:18;;;;;;;102.30;30.23;;;1.40;99.90;;;;;;4994529;28;20162;-76
2022/12/11 08:28:44;;;;;;;103.82;32.92;;;1.50;99.90;;;;;;4996289;28;20662;-76
2022/12/11 08:31:12;;;;;;;106.00;31.80;;;1.60;99.90;;;;;;4995641;28;20273;-76
2022/12/11 08:33:38;;;;;;;109.30;31.83;;;1.60;99.90;;;;;;4994441;28;20182;-77
2022/12/11 08:36:06;;;;;;;104.30;30.58;;;1.70;99.90;;;;;;4995653;28;20162;-76
2022/12/11 08:38:32;;;;;;;100.78;27.25;;;1.70;99.90;;;;;;4995522;28;20174;-76
2022/12/11 08:40:58;;;;;;;104.63;30.48;;;1.70;99.90;;;;;;4995386;28;20191;-77
2022/12/11 08:43:24;;;;;;;100.50;29.27;;;1.60;99.90;;;;;;4995518;28;20169;-77
2022/12/11 08:45:50;;;;;;;100.88;31.90;;;1.60;99.90;;;;;;4995442;28;20765;-77
2022/12/11 08:48:16;;;;;;;99.67;27.77;;;1.50;99.90;;;;;;4995427;28;20159;-76
2022/12/11 08:50:42;;;;;;;98.33;29.53;;;1.50;99.90;;;;;;4995323;28;20622;-77
2022/12/11 08:53:07;;;;;;;108.47;33.27;;;1.60;99.90;;;;;;4995298;28;20948;-77
2022/12/11 08:55:33;;;;;;;104.03;32.13;;;1.60;99.90;;;;;;4995771;28;20507;-77
2022/12/11 08:57:59;;;;;;;96.87;30.50;;;1.70;99.90;;;;;;4995436;28;20647;-77
2022/12/11 09:00:25;;;;;;;106.10;31.03;;;1.70;99.90;;;;;;4995163;28;20213;-77
2022/12/11 09:02:50;;;;;;;104.03;30.80;;;1.70;99.90;;;;;;4995549;28;20565;-77
2022/12/11 09:05:16;;;;;;;104.33;31.27;;;1.70;99.90;;;;;;4995276;28;20175;-77
2022/12/11 09:07:42;;;;;;;102.53;28.57;;;1.80;99.90;;;;;;4995298;28;20193;-77
2022/12/11 09:10:09;;;;;;;101.03;29.80;;;1.70;99.90;;;;;;4994781;28;20422;-77
2022/12/11 09:12:35;;;;;;;103.78;30.50;;;1.70;99.90;;;;;;4994923;28;20218;-77
2022/12/11 09:15:02;;;;;;;101.63;28.88;;;1.70;99.90;;;;;;4994957;28;20182;-77
2022/12/11 09:17:28;;;;;;;103.20;29.83;;;1.80;99.90;;;;;;4994856;28;20221;-77
2022/12/11 09:19:53;;;;;;;101.17;31.50;;;1.90;99.90;;;;;;4995004;28;20174;-77
2022/12/11 09:22:19;;;;;;;100.27;31.50;;;1.90;99.90;;;;;;4994698;28;20196;-77
2022/12/11 09:24:45;;;;;;;103.33;26.67;;;1.90;99.90;;;;;;4994935;28;20158;-77
2022/12/11 09:27:11;;;;;;;102.63;31.45;;;1.90;99.90;;;;;;4993902;28;20181;-77
2022/12/11 09:29:38;;;;;;;100.60;30.52;;;1.90;99.90;;;;;;4994874;28;20535;-76
2022/12/11 09:32:07;;;;;;;103.80;30.40;;;2.00;99.90;;;;;;4994975;28;20186;-77
2022/12/11 09:34:32;;;;;;;101.50;29.02;;;2.00;99.90;;;;;;4994499;28;20579;-76
2022/12/11 09:36:58;;;;;;;106.67;27.93;;;1.90;99.90;;;;;;4995029;28;20201;-76
2022/12/11 09:39:24;;;;;;;117.87;34.33;;;2.00;99.90;;;;;;4994414;28;20175;-77
2022/12/11 09:42:19;;;;;;;104.70;35.50;;;1.90;99.90;;;;;;4994267;28;20197;-76
2022/12/11 09:45:05;;;;;;;106.68;30.00;;;1.90;99.90;;;;;;4994366;28;20167;-76
2022/12/11 09:47:46;;;;;;;112.13;32.20;;;2.10;99.90;;;;;;4993087;28;20569;-77
2022/12/11 09:50:18;;;;;;;108.70;32.88;;;1.90;99.90;;;;;;4994479;28;20182;-76
2022/12/11 09:53:07;;;;;;;105.68;34.88;;;1.80;99.90;;;;;;4994491;28;20492;-77
2022/12/11 09:55:59;;;;;;;105.80;29.38;;;1.70;99.90;;;;;;4994184;28;20155;-77
2022/12/11 09:59:11;;;;;;;103.88;31.60;;;1.80;99.90;;;;;;4983697;28;20248;-76
2022/12/11 10:01:51;;;;;;;105.28;33.55;;;1.70;99.90;;;;;;4994297;28;20218;-77
2022/12/11 10:04:32;;;;;;;108.82;31.33;;;1.70;99.90;;;;;;4994086;28;20147;-77
2022/12/11 10:07:31;;;;;;;108.30;29.38;;;1.70;99.90;;;;;;4994614;28;20607;-76
2022/12/11 10:10:33;;;;;;;111.47;31.15;;;1.70;99.90;;;;;;4994238;28;20647;-77
2022/12/11 10:13:22;;;;;;;110.30;32.13;;;1.70;99.90;;;;;;4992735;28;20573;-77
2022/12/11 10:15:57;;;;;;;107.40;32.78;;;1.70;99.90;;;;;;4992803;28;20535;-77
2022/12/11 10:18:26;;;;;;;114.55;33.03;;;1.70;99.90;;;;;;4993924;28;20241;-76
2022/12/11 10:20:53;;;;;;;108.28;31.83;;;1.70;99.90;;;;;;4992558;28;20590;-77
2022/12/11 10:23:24;;;;;;;117.22;36.38;;;1.70;99.90;;;;;;4994402;28;20171;-76
2022/12/11 10:26:01;;;;;;;110.38;35.53;;;1.70;99.90;;;;;;4992611;28;20155;-75
2022/12/11 10:28:28;;;;;;;106.65;37.30;;;1.80;99.90;;;;;;4994415;28;20150;-77
2022/12/11 10:31:09;;;;;;;116.88;33.75;;;1.80;99.90;;;;;;4992485;28;20186;-77
2022/12/11 10:34:00;;;;;;;123.30;32.42;;;1.80;99.90;;;;;;4994035;28;20205;-77
2022/12/11 10:36:37;;;;;;;125.57;37.28;;;1.70;99.90;;;;;;4993746;28;20151;-77
2022/12/11 10:39:13;;;;;;;133.55;39.17;;;1.70;99.90;;;;;;4997297;28;20151;-77
2022/12/11 10:41:41;;;;;;;121.72;36.47;;;1.80;99.90;;;;;;4998253;28;20189;-77
2022/12/11 10:44:22;;;;;;;131.88;41.88;;;1.90;99.90;;;;;;4997644;28;20635;-77
2022/12/11 10:47:12;;;;;;;124.15;36.72;;;1.80;99.90;;;;;;4997628;28;20170;-77
2022/12/11 10:49:43;;;;;;;120.88;34.58;;;1.80;99.90;;;;;;4996363;28;20155;-77
2022/12/11 10:52:21;;;;;;;119.68;33.20;;;1.80;99.90;;;;;;4996347;28;20301;-77
2022/12/11 10:55:05;;;;;;;118.15;33.45;;;1.80;99.90;;;;;;4996305;28;20257;-77
2022/12/11 10:57:34;;;;;;;130.13;32.35;;;1.80;99.90;;;;;;4997562;28;20239;-77
2022/12/11 11:00:01;;;;;;;126.53;31.02;;;1.80;99.90;;;;;;4997434;28;20178;-77
2022/12/11 11:02:40;;;;;;;116.18;29.85;;;1.80;99.90;;;;;;4997754;28;20212;-77
2022/12/11 11:05:27;;;;;;;142.55;35.00;;;1.80;99.90;;;;;;4997289;28;20201;-77
2022/12/11 11:08:03;;;;;;;130.20;29.08;;;1.90;99.90;;;;;;4997582;28;20146;-77
2022/12/11 11:10:29;;;;;;;124.82;28.77;;;1.90;99.90;;;;;;4997321;28;20304;-77
2022/12/11 11:13:00;;;;;;;128.97;26.70;;;2.00;99.90;;;;;;5076390;23;20277;-81
2022/12/11 11:15:28;;;;;;;130.27;31.73;;;2.00;99.90;;;;;;5021182;28;20472;-81
2022/12/11 11:18:11;;;;;;;119.45;27.80;;;2.00;99.90;;;;;;5036707;28;20185;-80
2022/12/11 11:20:45;;;;;;;123.88;28.98;;;2.00;99.90;;;;;;5020013;28;20205;-82
2022/12/11 11:23:14;;;;;;;125.43;30.60;;;2.00;99.90;;;;;;5020643;28;20265;-82
2022/12/11 11:25:50;;;;;;;139.25;29.75;;;2.00;99.90;;;;;;5019447;28;20176;-82
2022/12/11 11:28:22;;;;;;;135.50;33.63;;;2.00;99.90;;;;;;5020071;28;20146;-82
2022/12/11 11:31:07;;;;;;;137.75;36.90;;;2.20;99.90;;;;;;5020592;28;20265;-81
2022/12/11 11:33:35;;;;;;;139.07;38.53;;;2.20;99.90;;;;;;5020209;28;20525;-83
2022/12/11 11:36:06;;;;;;;133.23;38.90;;;2.30;99.90;;;;;;5020153;28;20220;-83
2022/12/11 11:38:49;;;;;;;126.95;37.05;;;2.30;99.90;;;;;;5019880;28;20170;-83
2022/12/11 11:41:24;;;;;;;128.88;36.63;;;2.20;99.90;;;;;;5018491;28;20193;-83
2022/12/11 11:43:56;;;;;;;131.25;37.60;;;2.20;99.90;;;;;;5019471;28;20168;-83
2022/12/11 11:46:33;;;;;;;127.65;39.05;;;2.10;99.90;;;;;;5018436;28;20712;-83
2022/12/11 11:49:10;;;;;;;126.85;39.40;;;2.10;99.90;;;;;;5019018;28;20158;-83
2022/12/11 11:51:48;;;;;;;131.27;39.58;;;2.20;99.90;;;;;;5019592;28;20196;-83
2022/12/11 11:54:34;;;;;;;124.35;33.63;;;2.30;99.90;;;;;;5019584;28;20162;-83
2022/12/11 11:57:13;;;;;;;114.07;31.92;;;2.30;99.90;;;;;;5018303;28;20184;-83
2022/12/11 11:59:53;;;;;;;118.03;29.88;;;2.30;99.90;;;;;;5019040;28;20158;-83
2022/12/11 12:02:19;;;;;;;118.38;25.20;;;2.30;99.90;;;;;;5018074;28;20189;-82
2022/12/11 12:04:46;;;;;;;109.43;28.30;;;2.30;99.90;;;;;;5018818;28;20237;-82
2022/12/11 12:07:30;;;;;;;108.38;27.38;;;2.20;99.90;;;;;;5017361;28;20574;-82
2022/12/11 12:10:11;;;;;;;107.15;23.58;;;2.10;99.90;;;;;;5018545;28;20158;-82
2022/12/11 12:12:40;;;;;;;105.43;24.15;;;2.10;99.90;;;;;;5018335;28;20243;-81
2022/12/11 12:15:18;;;;;;;106.85;24.58;;;2.20;99.90;;;;;;5018799;28;20166;-82
2022/12/11 12:17:55;;;;;;;99.05;23.90;;;2.20;99.90;;;;;;5018981;28;20153;-81
2022/12/11 12:20:30;;;;;;;101.25;24.75;;;2.20;99.90;;;;;;5017192;28;20197;-82
2022/12/11 12:23:24;;;;;;;107.97;33.20;;;2.30;99.90;;;;;;5018178;28;20193;-81
2022/12/11 12:25:57;;;;;;;108.22;31.77;;;2.30;99.90;;;;;;5018902;28;20161;-81
2022/12/11 12:29:07;;;;;;;104.40;32.10;;;2.40;99.90;;;;;;5018019;28;20229;-81
2022/12/11 12:32:03;;;;;;;100.40;28.40;;;2.50;99.90;;;;;;5018360;28;20739;-82
2022/12/11 12:34:44;;;;;;;99.75;21.40;;;2.60;99.90;;;;;;5017195;28;20622;-81
2022/12/11 12:37:31;;;;;;;98.88;21.92;;;2.70;99.90;;;;;;5016983;28;20241;-82
2022/12/11 12:40:37;;;;;;;107.57;24.25;;;2.70;99.90;;;;;;5017198;28;20169;-83
2022/12/11 12:43:18;;;;;;;98.47;22.05;;;2.70;99.90;;;;;;5013049;28;20245;-82
2022/12/11 12:46:08;;;;;;;101.22;21.40;;;2.60;99.90;;;;;;5016804;28;20181;-83
2022/12/11 12:48:34;;;;;;;105.35;25.60;;;2.50;99.90;;;;;;5017892;28;20158;-83
2022/12/11 12:51:00;;;;;;;99.07;21.95;;;2.50;99.90;;;;;;5018593;28;20226;-83
2022/12/11 12:53:31;;;;;;;102.80;23.85;;;2.60;99.90;;;;;;5017461;28;20173;-83
2022/12/11 12:56:01;;;;;;;107.97;27.17;;;2.70;99.90;;;;;;5016947;28;20155;-83
2022/12/11 12:58:41;;;;;;;118.90;30.40;;;2.70;99.90;;;;;;5016882;28;20178;-83